Gustav Ibrahimovic

Olheiro-Chefe - Djurgarden
10 Set 2028
Domingo
Processo

Personalidade

Adaptabilidade (15) Ambição (8) Controvérsia (18) Lealdade (12) Pressão (5) Profissionalismo (8) Espírito Esportivo (12) Temperamento (2)

Perfil

Estilo de Treinamento Democrático
Licença Continental B
Determinação 4
Gestão de Pessoas 13
Motivação 7
Disciplina 9
Satisfação no Trabalho
100%
Fadiga
0%
Função Olheiro-Chefe
Salário 68.0K p/s
Contrato 14.03.2030

Desempenho

Comportamento Bom
Eficácia do Treinamento
51%
Desenvolvimento do Jogador
55%
Prevenção de Lesões
60%
Implementação Tática
60%

Eventos Recentes

Recomendou um alvo de transferência agora
Recomendou um alvo de transferência agora
Recomendou um alvo de transferência agora
Recomendou um alvo de transferência agora
Recomendou um alvo de transferência agora
Recomendou um alvo de transferência agora
Participou de uma reunião de recrutamento agora
Avaliou um jogador agora

Monitorando agora

245
Jogador Clube Status Habilidade Confiança Observado Última observação Último voto
Joel Ezra Enyimba Ativo 108 / 100 40% 6 07.09.2028 -
Ayden Heaven Portsmouth Ativo 158 / 151 40% 2 07.09.2028 -
Francisco Machis Llaneros Ativo 92 / 91 40% 1 07.09.2028 -
Melvin Vučenović Persson Atvidaberg Ativo 80 / 86 40% 5 06.09.2028 -
Aytor Herrera Mineros de Guayana Ativo 86 / 101 40% 1 06.09.2028 -
Tiago Gordillo San Miguel Ativo 99 / 88 40% 1 06.09.2028 -
Máximo Munarriz San Telmo Ativo 100 / 110 40% 1 05.09.2028 -
Lautaro Dufur Juventud Ativo 105 / 114 40% 1 05.09.2028 -
Honest Ahanor Atalanta Ativo 139 / 148 40% 4 14.08.2028 -
Kamaldeen Atiemo Wa All Stars Ativo 102 / 117 40% 1 14.08.2028 -
Lucas Camejo River Plate Ativo 86 / 91 40% 1 14.08.2028 -
Tobías Torrielli IFK Norrkoping Ativo 93 / 98 69% 1 07.08.2028 Aprovar
Sindre Walle Egeli Udinese Ativo 137 / 140 40% 3 09.05.2028 -
Gabriel Mec Feirense Ativo 137 / 132 40% 2 09.05.2028 -
Luca Williams-Barnett Walsall Ativo 119 / 126 40% 1 09.05.2028 -
Omar Khedr Gillingham Ativo 104 / 120 40% 1 05.05.2028 -
Henrique Carmo Sochi Ativo 128 / 135 40% 1 05.05.2028 -
Kerim Alajbegović Modena Ativo 129 / 132 40% 1 05.05.2028 -
Ibrahim Fullah Charlton Athletic Ativo 114 / 125 40% 3 04.05.2028 -
Ryan Kavuma-McQueen Accrington Stanley Ativo 117 / 124 40% 1 04.05.2028 -
Giovanni Leoni Lincoln City Ativo 134 / 147 40% 2 27.03.2028 -
Daniel Banjaqui Benfica Ativo 113 / 136 40% 3 27.03.2028 -
Ludvig Arvidsson Halmstad Ativo 92 / 108 69% 1 06.03.2028 Aprovar
Josh Acheampong Everton Ativo 145 / 154 40% 1 06.03.2028 -
Christos Mouzakitis Hull City Ativo 145 / 136 40% 1 06.03.2028 -
Jon Esenga IF Elfsborg Ativo 86 / 106 40% 2 16.02.2028 -
Matias Siltanen Malmo FF Ativo 132 / 138 40% 1 16.02.2028 -
Trey Nyoni Rotherham United Ativo 129 / 152 40% 1 16.02.2028 -
Bitello Universidad de Chile Ativo 135 / 135 68% 1 01.02.2028 Aprovar
Martin Cedidla Club Brugge Ativo 131 / 132 66% 1 01.02.2028 Aprovar
Sampson Dweh Mallorca Ativo 133 / 134 66% 1 01.02.2028 Aprovar
Archie Gray Southampton Ativo 155 / 155 40% 3 15.01.2028 -
Lucas Bergvall Tottenham Ativo 153 / 157 40% 3 14.01.2028 -
Zane Albarus Shrewsbury Town Ativo 91 / 113 40% 3 11.01.2028 -
Martim Cunha Porto Ativo 115 / 107 40% 1 10.01.2028 -
Tyler Fletcher Rotherham United Ativo 119 / 126 40% 1 09.01.2028 -
Victor Hernandez Santa Fe Negociando 127 / 120 40% 10 07.01.2028 -
Colin Guske Orlando City Ativo 102 / 95 40% 2 07.01.2028 -
Noel Sernelius IFK Norrkoping Ativo 96 / 119 40% 1 07.01.2028 -
Esquerdinha Notts County Ativo 115 / 132 40% 2 06.01.2028 -
Björn Hedlöf Helsingborg Ativo 88 / 110 40% 2 06.01.2028 -
Ruben Ramos LA Galaxy Ativo 110 / 110 40% 8 28.12.2027 -
Valentino Acuña Newell's Old Boys Ativo 119 / 114 40% 4 28.12.2027 -
Jayden Danns Bradford City Ativo 129 / 137 40% 1 26.12.2027 -
David Eke Enyimba Ativo 94 / 93 40% 1 26.12.2027 -
Emmanuel Ndubueze Shooting Stars Ativo 80 / 85 40% 3 24.12.2027 -
Matías Arias Vélez Ativo 121 / 122 40% 3 23.12.2027 -
Albert Aleksanjan IFK Norrkoping Ativo 102 / 98 40% 7 21.12.2027 -
Mateo Silvetti Seattle Sounders Ativo 122 / 119 40% 4 19.12.2027 -
Luca Meirelles Kudrivka Ativo 118 / 125 40% 2 19.12.2027 -
Idris Ajiya Nasarawa United Ativo 84 / 84 40% 5 17.12.2027 -
Jeremías Merlo Gimnasia La Plata Ativo 122 / 128 40% 3 17.12.2027 -
Pedro Baltika Ativo 139 / 144 40% 1 17.12.2027 -
Rafael Moreno Atletico Venezuela Ativo 100 / 112 40% 6 16.12.2027 -
Giovanni Baroni Talleres Ativo 118 / 112 40% 3 16.12.2027 -
Christ Wawa Gefle Ativo 110 / 98 40% 3 16.12.2027 -
Alex Verón Vélez Ativo 114 / 134 40% 3 14.12.2027 -
Ryan McAidoo Oldham Athletic Ativo 121 / 135 40% 1 13.12.2027 -
Rio Ngumoha Plymouth Argyle Ativo 130 / 150 40% 1 13.12.2027 -
Luka Andrade Montevideo City Torque Ativo 90 / 116 40% 10 11.12.2027 -
Alex Amaefula Kun Khalifat Ativo 77 / 76 40% 3 11.12.2027 -
Nupe Godstime Bayelsa United Ativo 77 / 100 40% 6 10.12.2027 -
Dylan Cabral Arsenal Ativo 90 / 98 40% 8 09.12.2027 -
Abdulrahman Hamisu Niger Tornadoes Ativo 97 / 85 40% 4 04.12.2027 -
Chimobi Igwilo Rangers International Ativo 88 / 92 40% 7 02.12.2027 -
Francisco Triver River Plate Ativo 85 / 94 40% 3 01.12.2027 -
Mateo Peralta Danubio Ativo 108 / 108 40% 3 29.11.2027 -
Keyano Marrah Hammarby Ativo 95 / 102 40% 2 24.11.2027 -
Mustapha Umar Kano Pillars Ativo 91 / 92 40% 6 22.11.2027 -
Imran Musa Atvidaberg Ativo 93 / 92 40% 1 20.11.2027 -
Maren Kefas Plateau United Ativo 82 / 103 40% 4 18.11.2027 -
Joseph Abah Remo Stars Ativo 80 / 89 40% 1 18.11.2027 -
Nicolás Barros Schelotto Gimnasia La Plata Ativo 130 / 137 40% 5 16.11.2027 -
Adrian Skogmar Malmo FF Ativo 108 / 117 40% 7 13.11.2027 -
Ben Gannon Doak Charlton Athletic Ativo 139 / 141 40% 2 30.10.2027 -
Tiago Pucciarelli IF Elfsborg Ativo 97 / 111 40% 2 19.10.2027 -
Abubakar Garba Nasarawa United Ativo 97 / 98 40% 6 17.10.2027 -
Juan Rodríguez Cerro Largo Ativo 85 / 103 40% 2 15.10.2027 -
Lucas Duré Montevideo City Torque Ativo 95 / 116 40% 1 13.10.2027 -
Léo Llaneros Ativo 83 / 92 40% 1 13.10.2027 -
Hassan Beja AFC Leopards Ativo 99 / 92 40% 3 10.10.2027 -
Wisdom Udom Bendel Insurance Ativo 78 / 94 40% 4 07.10.2027 -
Didier Dawson Envigado Ativo 97 / 111 40% 1 01.10.2027 -
Abdoulaye Allamine Stars Jeunes Talents Ativo 69 / 82 40% 1 16.08.2027 -
Pedro de la Vega Columbus Crew Ativo 133 / 134 66% 1 16.07.2027 Aprovar
Leo Castledine Middlesbrough Ativo 134 / 131 40% 4 15.07.2027 -
Caleb Yirenkyi Coventry City Ativo 134 / 135 40% 9 15.07.2027 -
Calum Agius Crewe Alexandra Ativo 96 / 91 40% 3 15.07.2027 -
Daniel Awuni Aduana Stars Ativo 96 / 84 40% 6 13.07.2027 -
Riley Owen Stevenage Ativo 113 / 106 40% 3 08.07.2027 -
Charlie Gray Fleetwood Town Ativo 91 / 104 40% 6 08.07.2027 -
Ishmael Addo Heart of Lions Ativo 90 / 95 40% 2 08.07.2027 -
Othmane Maamma Watford Ativo 137 / 132 40% 4 07.07.2027 -
Elijas Gunnergård Ortan Ahrobiznes Ativo 82 / 94 40% 5 06.07.2027 -
Mohamadou Kanté Crawley Town Ativo 118 / 125 40% 2 06.07.2027 -
João Abreu Porto Ativo 102 / 113 40% 3 05.07.2027 -
Jan Bürger Northampton Town Ativo 114 / 130 40% 4 01.07.2027 -
Nana Nuhu WAFA Ativo 95 / 86 40% 4 01.07.2027 -
Stevan Manuel Benfica Ativo 92 / 103 40% 1 28.06.2027 -
Bazoumana Touré Newcastle United Ativo 149 / 155 40% 3 23.06.2027 -
Ethan Williams Peterborough United Ativo 123 / 117 40% 1 23.06.2027 -
Araphat Mohammed Ashanti Gold Ativo 112 / 102 40% 3 11.06.2027 -
Luke Baartman Ajax Cape Town Ativo 101 / 98 40% 1 11.06.2027 -
Lander Astiazarán Real Sociedad Ativo 104 / 118 40% 3 10.06.2027 -
Gladson Adjei WAFA Ativo 72 / 80 40% 1 09.06.2027 -
Romelle Donovan Brentford Ativo 135 / 137 40% 6 08.06.2027 -
Rhys Walters Port Vale Ativo 96 / 116 40% 1 07.06.2027 -
Tiago Freitas Benfica Ativo 101 / 124 40% 1 03.06.2027 -
Gabriele Bertolini Vicenza Ativo 101 / 110 40% 1 03.06.2027 -
Asanele Bonani Chippa United Ativo 99 / 84 40% 1 03.06.2027 -
Víctor Guzmán Sporting CP Ativo 97 / 110 40% 1 01.06.2027 -
Edwin Asamoah Berekum Chelsea Ativo 75 / 97 40% 2 30.05.2027 -
Williams Wonah AS Police Ativo 78 / 70 40% 1 26.05.2027 -
Kirill Glebov CSKA Moscow Ativo 131 / 121 40% 1 24.05.2027 -
Nestory Irankunda Watford Ativo 127 / 133 40% 1 13.05.2027 -
André Miranda Porto Ativo 91 / 100 40% 1 13.05.2027 -
Alphadjo Cissé Lecce Ativo 129 / 137 40% 1 12.05.2027 -
Oscar Schwartau Norwich City Ativo 111 / 128 40% 1 06.05.2027 -
Hamse Shagaxle Angusht Ativo 77 / 91 40% 1 04.05.2027 -
Jenson Jones Walsall Ativo 91 / 104 40% 2 23.04.2027 -
Bernardo Lima Porto Ativo 86 / 96 40% 1 21.04.2027 -
Gonçalo Oliveira Benfica Ativo 112 / 105 40% 2 20.04.2027 -
Chari Giwa US Bougouni Ativo 67 / 70 40% 1 16.04.2027 -
Samuele di Benedetto Twente Ativo 107 / 110 40% 1 16.04.2027 -
Rivaldo Mkhize Black Aces Ativo 89 / 75 40% 1 15.04.2027 -
Leandro Martins Benfica Ativo 98 / 85 40% 1 15.04.2027 -
Tommaso Cecotti Carpi Ativo 83 / 85 40% 1 12.04.2027 -
Konta Ismaily Ativo 92 / 91 40% 1 09.04.2027 -
Ahmed Zaki Masr El Makasa Ativo 87 / 95 40% 1 09.04.2027 -
Afriyie Sulemana WAFA Ativo 84 / 99 40% 1 05.04.2027 -
Kazunari Kita Real Sociedad Ativo 99 / 108 40% 1 05.04.2027 -
David Ozoh Derby County Ativo 119 / 120 40% 1 15.03.2027 -
Lwanda Mbanjwa Platinum Stars Ativo 99 / 100 40% 1 22.02.2027 -
Mikel Gogorza Brondby Ativo 118 / 118 40% 1 16.02.2027 -
Rocco Vata Watford Ativo 113 / 111 40% 4 04.02.2027 -
Fletcher Holman Swindon Town Ativo 77 / 100 40% 1 04.02.2027 -
Ethan Pye Stockport County Ativo 123 / 125 40% 1 01.02.2027 -
Álex Centelles Levski Ativo 129 / 132 40% 1 01.02.2027 -
Isaiah Jones Luton Town Ativo 116 / 134 40% 1 31.01.2027 -
Cian Ashford Cardiff City Ativo 111 / 127 40% 1 31.01.2027 -
Callum O'Hare Sheffield United Ativo 130 / 140 40% 4 30.01.2027 -
Sam Greenwood Bristol City Ativo 131 / 121 40% 5 30.01.2027 -
Bradley Zwane SuperSport United Ativo 112 / 125 40% 3 29.01.2027 -
Joe Gelhardt Hull City Ativo 128 / 126 40% 7 29.01.2027 -
Emmanuel Boateng Hapoel Tel Aviv Ativo 128 / 132 40% 4 29.01.2027 -
Anthony Patterson Wrexham Ativo 142 / 142 40% 3 28.01.2027 -
Lukas Jensen Millwall Ativo 114 / 130 40% 1 28.01.2027 -
Arthur Beroe Ativo 115 / 114 40% 1 28.01.2027 -
Ivan Sergeev Dinamo Moscow Ativo 131 / 120 40% 3 27.01.2027 -
Arthur Gomes Dinamo Moscow Ativo 125 / 116 40% 1 23.01.2027 -
Ioannis Pittas CSKA Sofia Ativo 125 / 123 40% 2 22.01.2027 -
Mohamed-Ali Cho Hull City Ativo 139 / 146 40% 1 20.01.2027 -
Richard Ludha MFK Skalica Ativo 109 / 106 40% 1 19.01.2027 -
Bongani Zungu Ajax Cape Town Ativo 124 / 132 40% 5 16.01.2027 -
Derensili Sanches Fernandes Huddersfield Town Ativo 121 / 117 40% 1 15.01.2027 -
Ali Ahmed Norwich City Ativo 131 / 134 40% 1 13.01.2027 -
Jack McGlynn Stoke City Ativo 119 / 145 40% 1 12.01.2027 -
Ilyas Ansah Hull City Ativo 119 / 119 40% 3 09.01.2027 -
Oli McBurnie Hull City Ativo 124 / 137 40% 3 08.01.2027 -
Tyrese Campbell Sheffield United Ativo 131 / 116 40% 3 08.01.2027 -
Daniel Paraschiv Bnei Sakhnin Ativo 129 / 108 40% 1 07.01.2027 -
Marcelo Allende Mamelodi Sundowns Ativo 133 / 135 40% 2 02.01.2027 -
Harry Clarke Preston Ativo 130 / 140 40% 1 02.01.2027 -
Patson Daka Leicester City Ativo 127 / 119 40% 1 01.01.2027 -
Habib Diarra Sunderland Ativo 134 / 153 40% 1 31.12.2026 -
Armstrong Oko-Flex Levski Ativo 118 / 127 40% 3 29.12.2026 -
Ammar Ramadan DAC Dunajska Streda Ativo 119 / 132 40% 1 29.12.2026 -
Cho Gue-Sung FC Midtjylland Ativo 122 / 136 40% 1 28.12.2026 -
Elijah Adebayo Luton Town Ativo 112 / 127 40% 1 28.12.2026 -
Mustapha Sangaré Levski Ativo 123 / 124 40% 2 27.12.2026 -
Zian Flemming Ipswich Town Ativo 135 / 123 40% 3 27.12.2026 -
Cameron Archer Southampton Ativo 132 / 113 40% 1 24.12.2026 -
Milan van Ewijk Coventry City Ativo 128 / 119 40% 1 21.12.2026 -
Reda Khadra Qarabag Ativo 142 / 146 40% 3 20.12.2026 -
Che Adams Torino Ativo 132 / 154 40% 2 16.12.2026 -
Murphy Cooper Plymouth Argyle Ativo 106 / 111 40% 1 16.12.2026 -
János Uram Vasas Ativo 99 / 95 40% 1 16.12.2026 -
Aune Heggebø West Bromwich Albion Ativo 136 / 122 40% 2 14.12.2026 -
Tyrhys Dolan Espanyol Ativo 141 / 136 40% 1 12.12.2026 -
Bobby Clark Derby County Ativo 125 / 119 40% 1 12.12.2026 -
Kwadwo Duah Ludogorets Ativo 122 / 121 40% 1 12.12.2026 -
Morgan Guilavogui Real Salt Lake Ativo 124 / 128 40% 4 09.12.2026 -
Josh Keeley Luton Town Ativo 123 / 116 40% 1 09.12.2026 -
Kyle Wootton Stockport County Ativo 110 / 131 40% 1 07.12.2026 -
Sota Kitano Red Bull Salzburg Ativo 123 / 138 40% 2 06.12.2026 -
Assad Al Hamlawi Universitatea Craiova Ativo 116 / 109 40% 3 05.12.2026 -
Wessam Abou Ali Columbus Crew Ativo 140 / 146 40% 3 30.11.2026 -
Elmin Rastoder Panathinaikos Ativo 123 / 125 40% 2 30.11.2026 -
Petter Nosa Dahl Rapid Wien Ativo 117 / 137 40% 1 30.11.2026 -
Ola Brynhildsen Rapid Wien Ativo 117 / 143 40% 2 29.11.2026 -
Ondřej Lingr Korona Ativo 126 / 128 40% 2 28.11.2026 -
Max Fenger Helsingborg Ativo 116 / 111 40% 8 28.11.2026 -
Petar Musa FC Dallas Ativo 129 / 148 40% 4 23.11.2026 -
Luka Jović CFR Cluj Ativo 129 / 129 40% 4 19.11.2026 -
Michele Šego Hajduk Split Ativo 123 / 120 40% 1 18.11.2026 -
Germán Berterame Inter Miami CF Ativo 143 / 135 40% 1 15.11.2026 -
Kévin Denkey FC Cincinnati Ativo 119 / 112 40% 3 14.11.2026 -
Alexey Miranchuk Atlanta United FC Ativo 152 / 149 40% 1 14.11.2026 -
Erik Botheim Viking Ativo 134 / 130 40% 1 14.11.2026 -
Tadeo Allende Inter Miami CF Ativo 118 / 119 40% 1 13.11.2026 -
Brian White Vancouver Whitecaps Ativo 125 / 109 40% 2 12.11.2026 -
Vegard Erlien Tromso Ativo 132 / 122 40% 2 07.11.2026 -
Yorbe Vertessen Red Bull Salzburg Ativo 124 / 143 40% 1 05.11.2026 -
Talles Magno New York City Ativo 129 / 142 40% 6 02.11.2026 -
Jesus Ferreira Seattle Sounders Ativo 121 / 118 40% 2 02.11.2026 -
Daniel Kyerewaa Reading Ativo 115 / 106 40% 1 02.11.2026 -
Bénie Traoré New York City Ativo 123 / 119 40% 1 29.10.2026 -
Paulos Abraham Hammarby Ativo 127 / 119 40% 1 26.10.2026 Mais informações
Leonardo Campana New England Revolution Ativo 120 / 116 40% 1 26.10.2026 -
Diego García Malmo FF Ativo 112 / 124 40% 2 25.10.2026 -
Manfred Ugalde Spartak Moscow Ativo 133 / 133 40% 1 25.10.2026 -
Alexander Aravena Portland Timbers Ativo 118 / 121 40% 1 24.10.2026 -
Anderson Julio FC Dallas Ativo 111 / 133 40% 1 19.10.2026 -
Mojmír Chytil Slavia Prague Ativo 136 / 140 40% 2 18.10.2026 -
Matías Pellegrini Vélez Ativo 129 / 104 40% 1 18.10.2026 -
Oswin Appollis Orlando Pirates Ativo 131 / 109 40% 1 18.10.2026 -
João Klauss LA Galaxy Ativo 135 / 112 40% 1 14.10.2026 -
Andrés Herrera Columbus Crew Ativo 134 / 113 40% 1 14.10.2026 -
Cheikh Sabaly Vancouver Whitecaps Ativo 117 / 137 40% 2 12.10.2026 -
Sead Hakšabanović Malmo FF Ativo 126 / 108 40% 4 11.10.2026 -
Dejan Joveljić Seattle Sounders Ativo 136 / 121 40% 2 11.10.2026 -
Martín Ojeda Orlando City Ativo 132 / 119 40% 2 10.10.2026 -
Brandon Vázquez Austin FC Ativo 122 / 130 40% 1 10.10.2026 -
Dániel Gazdag New England Revolution Ativo 131 / 115 40% 1 07.10.2026 -
Telasco Segovia Inter Miami CF Ativo 142 / 118 40% 1 06.10.2026 -
Warren Kamanzi Malmo FF Ativo 124 / 130 40% 2 05.10.2026 -
Santiago Rodríguez Columbus Crew Ativo 120 / 140 40% 2 05.10.2026 -
Ramiro Ruiz Rodríguez Atlético Tucumán Ativo 116 / 114 40% 2 29.09.2026 -
Andreas Helmersen Bodo/Glimt Ativo 125 / 112 40% 1 29.09.2026 -
David Kruse IFK Goteborg Ativo 121 / 106 40% 1 29.09.2026 -
Esequiel Barco Spartak Moscow Ativo 135 / 146 40% 1 28.09.2026 -
Indiana Vassilev Philadelphia Union Ativo 111 / 111 40% 1 27.09.2026 -
Hannes Wolf New York City Ativo 137 / 124 40% 1 27.09.2026 -
Facundo Mura Inter Miami CF Ativo 113 / 141 40% 1 25.09.2026 -
Victor Lind Hammarby Ativo 121 / 132 40% 1 25.09.2026 -
Marcelo Torres Gimnasia La Plata Ativo 112 / 103 40% 1 23.09.2026 -
Alonso Martínez New York City Ativo 109 / 111 40% 1 16.09.2026 -
Mariano Bracamonte Deportivo Riestra Ativo 121 / 107 40% 1 16.09.2026 -
Duncan McGuire Houston Dynamo Ativo 126 / 133 40% 2 12.09.2026 -
Nardin Mulahusejnović Vojvodina Ativo 128 / 115 40% 1 12.09.2026 -
Gonzalo Carneiro Sparta Prague Ativo 113 / 110 40% 1 10.09.2026 -
Ole Sæter Valerenga Ativo 125 / 129 40% 1 07.09.2026 -
Juan Manuel Martínez Trejo Atvidaberg Ativo 104 / 104 30% 1 / 1m 12.08.2026 -
Aboubacar Keita Kalmar FF Ativo 105 / 101 69% 1 10.08.2026 Aprovar
Tomáš Souček West Ham United Ativo 134 / 136 40% 1 01.08.2026 -